Time;durP1;ratioP1;P1;durP2;ratioP2;P2;SDS_P1;SDS_P2;PMS_P1;PMS_P2;Temp;Humidity;BMP_temperature;BMP_pressure;BME280_temperature;BME280_humidity;BME280_pressure;Samples;Min_cycle;Max_cycle;Signal;HPM_P1;HPM_P2
2022/10/01 00:00:16;;;;;;;5.77;4.93;;;12.30;99.90;;;;;;4993968;28;20171;-86
2022/10/01 00:02:42;;;;;;;6.60;5.07;;;12.30;99.90;;;;;;4993662;28;20477;-85
2022/10/01 00:05:11;;;;;;;6.23;4.97;;;12.40;99.90;;;;;;4994008;28;20218;-85
2022/10/01 00:07:42;;;;;;;6.77;4.53;;;12.30;99.90;;;;;;4995013;28;20175;-84
2022/10/01 00:10:10;;;;;;;6.83;4.60;;;12.30;99.90;;;;;;4993673;28;20178;-85
2022/10/01 00:12:37;;;;;;;5.47;4.77;;;12.30;99.90;;;;;;4993915;28;20219;-84
2022/10/01 00:15:08;;;;;;;5.83;4.37;;;12.30;99.90;;;;;;4993703;28;20179;-84
2022/10/01 00:17:35;;;;;;;4.37;3.90;;;12.30;99.90;;;;;;4994576;28;20180;-85
2022/10/01 00:20:02;;;;;;;6.27;4.03;;;12.40;99.90;;;;;;4996335;28;20181;-86
2022/10/01 00:22:31;;;;;;;4.37;3.47;;;12.50;99.90;;;;;;4993015;28;20218;-84
2022/10/01 00:24:58;;;;;;;4.83;3.93;;;12.40;99.90;;;;;;4993398;28;20190;-84
2022/10/01 00:27:24;;;;;;;5.10;3.60;;;12.50;99.90;;;;;;4993355;28;20199;-85
2022/10/01 00:29:50;;;;;;;5.23;3.33;;;12.30;99.90;;;;;;4996044;28;20202;-84
2022/10/01 00:32:16;;;;;;;4.73;3.57;;;12.40;99.90;;;;;;4993343;28;20210;-86
2022/10/01 00:34:42;;;;;;;5.83;3.30;;;12.50;99.90;;;;;;4995252;28;20190;-84
2022/10/01 00:37:11;;;;;;;5.77;2.87;;;12.50;99.90;;;;;;4995832;28;20243;-84
2022/10/01 00:39:37;;;;;;;3.80;2.93;;;12.40;99.90;;;;;;4993728;28;20252;-84
2022/10/01 00:42:16;;;;;;;4.13;2.70;;;12.40;99.90;;;;;;4994070;28;20218;-84
2022/10/01 00:44:42;;;;;;;4.60;2.60;;;12.50;99.90;;;;;;4993248;28;20795;-84
2022/10/01 00:47:30;;;;;;;5.83;2.60;;;12.40;99.90;;;;;;4994409;28;20257;-85
2022/10/01 00:50:08;;;;;;;3.40;2.23;;;12.30;99.90;;;;;;4993451;28;20664;-84
2022/10/01 00:52:38;;;;;;;3.27;2.10;;;12.30;99.90;;;;;;4994617;28;20218;-84
2022/10/01 00:55:11;;;;;;;3.37;2.33;;;12.30;99.90;;;;;;4997684;28;20239;-84
2022/10/01 00:57:38;;;;;;;3.30;2.10;;;12.30;99.90;;;;;;5014428;28;20194;-84
2022/10/01 01:00:07;;;;;;;3.47;2.17;;;12.30;99.90;;;;;;5011819;28;20166;-84
2022/10/01 01:02:33;;;;;;;3.13;2.00;;;12.30;99.90;;;;;;5011806;28;20206;-84
2022/10/01 01:05:02;;;;;;;2.83;1.67;;;12.40;99.90;;;;;;5003420;28;20636;-84
2022/10/01 01:07:30;;;;;;;2.67;1.60;;;12.30;99.90;;;;;;4995609;28;20174;-85
2022/10/01 01:09:56;;;;;;;3.00;1.87;;;12.30;99.90;;;;;;4994003;28;20624;-85
2022/10/01 01:12:32;;;;;;;2.53;1.70;;;12.30;99.90;;;;;;4994969;28;20203;-85
2022/10/01 01:15:30;;;;;;;2.73;1.80;;;12.30;99.90;;;;;;4994361;28;20226;-85
2022/10/01 01:18:24;;;;;;;2.50;1.83;;;12.30;99.90;;;;;;4993271;28;20666;-85
2022/10/01 01:21:01;;;;;;;3.43;1.80;;;12.30;99.90;;;;;;4993187;28;20540;-85
2022/10/01 01:23:33;;;;;;;3.60;1.80;;;12.30;99.90;;;;;;4993443;28;20274;-86
2022/10/01 01:26:06;;;;;;;2.60;1.63;;;12.30;99.90;;;;;;4992881;28;20730;-83
2022/10/01 01:28:39;;;;;;;2.53;1.70;;;12.40;99.90;;;;;;4992902;28;20182;-85
2022/10/01 01:31:09;;;;;;;2.90;1.87;;;12.40;99.90;;;;;;4992408;28;20228;-84
2022/10/01 01:33:37;;;;;;;2.30;1.60;;;12.40;99.90;;;;;;4993065;28;20194;-84
2022/10/01 01:36:09;;;;;;;2.43;1.60;;;12.40;99.90;;;;;;4992919;28;20176;-85
2022/10/01 01:38:41;;;;;;;2.90;1.53;;;12.30;99.90;;;;;;4997035;28;20179;-85
2022/10/01 01:41:09;;;;;;;2.30;1.30;;;12.40;99.90;;;;;;4998250;28;20176;-86
2022/10/01 01:43:40;;;;;;;2.63;1.60;;;12.40;99.90;;;;;;4998229;28;20202;-85
2022/10/01 01:46:09;;;;;;;1.77;1.27;;;12.30;99.90;;;;;;4997953;28;20194;-84
2022/10/01 01:48:37;;;;;;;2.00;1.50;;;12.30;99.90;;;;;;4997025;28;20198;-85
2022/10/01 01:51:11;;;;;;;1.77;1.40;;;12.40;99.90;;;;;;4996928;28;20275;-85
2022/10/01 01:53:37;;;;;;;1.80;1.40;;;12.30;99.90;;;;;;4996732;28;20193;-85
2022/10/01 01:56:04;;;;;;;2.43;1.53;;;12.30;99.90;;;;;;4996673;28;20203;-84
2022/10/01 01:58:33;;;;;;;1.40;1.20;;;12.30;99.90;;;;;;4996713;28;20205;-84
2022/10/01 02:00:58;;;;;;;1.93;1.40;;;12.40;99.90;;;;;;4996464;28;20182;-86
2022/10/01 02:03:28;;;;;;;2.03;1.30;;;12.30;99.90;;;;;;4996806;28;20175;-85
2022/10/01 02:06:25;;;;;;;2.53;1.30;;;12.30;99.90;;;;;;4997359;28;20175;-85
2022/10/01 02:09:04;;;;;;;3.07;1.50;;;12.40;99.90;;;;;;4997504;28;20181;-85
2022/10/01 02:11:37;;;;;;;1.83;1.50;;;12.40;99.90;;;;;;4995832;28;20233;-85
2022/10/01 02:14:17;;;;;;;5.47;1.83;;;12.40;99.90;;;;;;4996576;28;20229;-86
2022/10/01 02:17:02;;;;;;;1.37;1.27;;;12.30;99.90;;;;;;5001370;28;20163;-84
2022/10/01 02:19:43;;;;;;;2.63;1.40;;;12.40;99.90;;;;;;5017760;28;20179;-85
2022/10/01 02:22:11;;;;;;;1.30;1.20;;;12.40;99.90;;;;;;5016828;28;20210;-85
2022/10/01 02:24:43;;;;;;;1.97;1.37;;;12.40;99.90;;;;;;5001236;28;20195;-85
2022/10/01 02:27:29;;;;;;;2.20;1.20;;;12.40;99.90;;;;;;5001009;28;20199;-85
2022/10/01 02:30:01;;;;;;;1.37;1.10;;;12.40;99.90;;;;;;4997731;28;20179;-84
2022/10/01 02:32:34;;;;;;;1.33;1.20;;;12.50;99.90;;;;;;4999287;28;20215;-85
2022/10/01 02:35:04;;;;;;;1.20;1.00;;;12.40;99.90;;;;;;4996201;28;20550;-85
2022/10/01 02:37:32;;;;;;;2.40;1.27;;;12.40;99.90;;;;;;4995723;28;20338;-85
2022/10/01 02:40:00;;;;;;;1.43;1.10;;;12.50;99.90;;;;;;4995407;28;20572;-85
2022/10/01 02:42:28;;;;;;;2.83;1.20;;;12.40;99.90;;;;;;4995656;28;20187;-85
2022/10/01 02:45:01;;;;;;;1.77;1.00;;;12.50;99.90;;;;;;4996375;28;20254;-85
2022/10/01 02:47:46;;;;;;;1.17;0.90;;;12.50;99.90;;;;;;4996462;28;20183;-84
2022/10/01 02:50:12;;;;;;;1.17;0.90;;;12.50;99.90;;;;;;4996123;28;20206;-84
2022/10/01 02:52:46;;;;;;;0.90;0.80;;;12.50;99.90;;;;;;4995813;28;20319;-85
2022/10/01 02:55:16;;;;;;;4.93;1.07;;;12.50;99.90;;;;;;4995274;28;20208;-84
2022/10/01 02:57:42;;;;;;;1.13;0.93;;;12.50;99.90;;;;;;4994749;28;20179;-84
2022/10/01 03:00:11;;;;;;;3.13;1.20;;;12.50;99.90;;;;;;4994847;28;20175;-85
2022/10/01 03:02:37;;;;;;;1.90;1.30;;;12.60;99.90;;;;;;4995425;28;20703;-85
2022/10/01 03:05:04;;;;;;;5.30;1.40;;;12.60;99.90;;;;;;4995080;28;20210;-85
2022/10/01 03:07:34;;;;;;;1.50;1.30;;;12.60;99.90;;;;;;4994054;28;20176;-86
2022/10/01 03:10:02;;;;;;;1.50;1.40;;;12.70;99.90;;;;;;4995070;28;20207;-85
2022/10/01 03:12:28;;;;;;;1.73;1.43;;;12.80;99.90;;;;;;4994646;28;20207;-85
2022/10/01 03:14:54;;;;;;;1.70;1.50;;;12.80;99.90;;;;;;4995024;28;20179;-86
2022/10/01 03:17:20;;;;;;;4.13;1.70;;;12.80;99.90;;;;;;4996212;28;20636;-85
2022/10/01 03:19:46;;;;;;;1.83;1.60;;;12.80;99.90;;;;;;4995043;28;20183;-86
2022/10/01 03:22:13;;;;;;;2.63;1.93;;;12.80;99.90;;;;;;4994178;28;20186;-86
2022/10/01 03:24:39;;;;;;;2.20;1.80;;;12.80;99.90;;;;;;4994948;28;20182;-85
2022/10/01 03:27:05;;;;;;;2.20;1.90;;;12.90;99.90;;;;;;4994220;28;20200;-84
2022/10/01 03:29:31;;;;;;;2.77;1.70;;;12.90;99.90;;;;;;4994860;28;20175;-84
2022/10/01 03:31:56;;;;;;;2.20;1.63;;;13.00;99.90;;;;;;4995900;28;20218;-84
2022/10/01 03:34:22;;;;;;;2.90;1.73;;;13.10;99.90;;;;;;4995201;28;20171;-84
2022/10/01 03:36:49;;;;;;;2.40;1.50;;;13.00;99.90;;;;;;4995847;28;20172;-85
2022/10/01 03:39:15;;;;;;;1.57;1.30;;;13.30;99.90;;;;;;4994071;28;20224;-83
2022/10/01 03:41:41;;;;;;;3.40;1.40;;;13.30;99.90;;;;;;4993957;28;20175;-85
2022/10/01 03:44:06;;;;;;;3.20;1.53;;;13.30;99.90;;;;;;4994517;28;20261;-86
2022/10/01 03:46:32;;;;;;;3.13;1.50;;;13.30;99.90;;;;;;4994524;28;20186;-85
2022/10/01 03:48:59;;;;;;;1.67;1.30;;;13.40;99.90;;;;;;4994374;28;20193;-87
2022/10/01 03:51:26;;;;;;;2.70;1.50;;;13.50;99.90;;;;;;4993621;28;20211;-85
2022/10/01 03:53:52;;;;;;;2.63;1.20;;;13.60;99.90;;;;;;4995088;28;20254;-83
2022/10/01 03:56:18;;;;;;;2.27;1.70;;;13.50;99.90;;;;;;4995626;28;20163;-85
2022/10/01 03:58:44;;;;;;;2.10;1.50;;;13.50;99.90;;;;;;4994313;28;20255;-85
2022/10/01 04:01:09;;;;;;;2.97;1.50;;;13.50;99.90;;;;;;4993943;28;20176;-83
2022/10/01 04:03:35;;;;;;;2.00;1.30;;;13.60;99.90;;;;;;4994073;28;20179;-85
2022/10/01 04:06:01;;;;;;;1.83;1.30;;;13.70;99.90;;;;;;4994335;28;20183;-86
2022/10/01 04:08:26;;;;;;;1.43;1.13;;;13.80;99.90;;;;;;4993693;28;20212;-85
2022/10/01 04:10:52;;;;;;;1.70;1.50;;;13.80;99.90;;;;;;4993859;28;20177;-85
2022/10/01 04:13:18;;;;;;;2.07;1.30;;;13.80;99.90;;;;;;4994285;28;20193;-84
2022/10/01 04:15:43;;;;;;;0.97;0.93;;;13.90;99.90;;;;;;4994240;28;20237;-85
2022/10/01 04:18:09;;;;;;;1.30;1.10;;;13.90;99.90;;;;;;5009164;28;20180;-85
2022/10/01 04:20:36;;;;;;;1.30;1.07;;;13.90;99.90;;;;;;5001590;28;20170;-85
2022/10/01 04:23:03;;;;;;;2.77;1.10;;;13.90;99.90;;;;;;5010304;28;20194;-85
2022/10/01 04:25:29;;;;;;;1.80;1.00;;;13.90;99.90;;;;;;5004504;28;20205;-84
2022/10/01 04:28:04;;;;;;;1.60;1.10;;;13.90;99.90;;;;;;5012292;28;20189;-84
2022/10/01 04:30:33;;;;;;;1.30;1.20;;;13.90;99.90;;;;;;5015417;28;20280;-85
2022/10/01 04:32:59;;;;;;;1.20;1.10;;;14.00;99.90;;;;;;4998506;28;20217;-84
2022/10/01 04:35:25;;;;;;;1.27;0.93;;;14.00;99.90;;;;;;5006112;28;20166;-85
2022/10/01 04:38:02;;;;;;;1.40;1.10;;;14.00;99.90;;;;;;5007293;28;20182;-85
2022/10/01 04:40:47;;;;;;;1.63;0.97;;;14.00;99.90;;;;;;4999928;28;20232;-84
2022/10/01 04:43:16;;;;;;;1.10;1.00;;;14.20;99.90;;;;;;4994487;28;20174;-86
2022/10/01 04:45:44;;;;;;;1.83;1.30;;;14.20;99.90;;;;;;4993566;28;20534;-85
2022/10/01 04:48:10;;;;;;;2.10;1.30;;;14.30;99.90;;;;;;4995470;28;20639;-85
2022/10/01 04:50:42;;;;;;;1.70;1.50;;;14.40;99.90;;;;;;4995046;28;20174;-85
2022/10/01 04:53:07;;;;;;;1.80;1.30;;;14.50;99.90;;;;;;4995519;28;20561;-85
2022/10/01 04:55:33;;;;;;;2.20;1.37;;;14.60;99.90;;;;;;4995475;28;20174;-85
2022/10/01 04:57:59;;;;;;;1.77;1.23;;;14.40;99.90;;;;;;4996145;28;20177;-84
2022/10/01 05:00:25;;;;;;;2.27;1.40;;;14.40;99.90;;;;;;4997200;28;20547;-86
2022/10/01 05:02:52;;;;;;;1.47;1.27;;;14.30;99.90;;;;;;4996722;28;20254;-84
2022/10/01 05:05:20;;;;;;;4.03;1.67;;;14.40;99.90;;;;;;4995785;28;20173;-84
2022/10/01 05:07:46;;;;;;;2.40;1.30;;;14.50;99.90;;;;;;4992908;28;20178;-84
2022/10/01 05:10:15;;;;;;;1.83;1.20;;;14.60;99.90;;;;;;4992950;28;20230;-84
2022/10/01 05:12:41;;;;;;;1.80;1.20;;;14.50;99.90;;;;;;4993017;28;20216;-85
2022/10/01 05:15:08;;;;;;;1.60;1.10;;;14.50;99.90;;;;;;4993775;28;20170;-84
2022/10/01 05:17:34;;;;;;;2.37;1.37;;;14.40;99.90;;;;;;4992966;28;20181;-84
2022/10/01 05:20:01;;;;;;;2.50;1.30;;;14.50;99.90;;;;;;4993805;28;20651;-84
2022/10/01 05:22:27;;;;;;;2.57;1.63;;;14.50;99.90;;;;;;5012251;28;20197;-83
2022/10/01 05:24:53;;;;;;;2.47;1.30;;;14.50;99.90;;;;;;4999974;28;20232;-83
2022/10/01 05:27:19;;;;;;;1.50;1.27;;;14.50;99.90;;;;;;4994506;28;20205;-85
2022/10/01 05:29:45;;;;;;;2.23;1.20;;;14.40;99.90;;;;;;4996756;28;20185;-86
2022/10/01 05:32:12;;;;;;;3.53;1.43;;;14.40;99.90;;;;;;4994257;28;20212;-86
2022/10/01 05:34:38;;;;;;;2.40;1.20;;;14.40;99.90;;;;;;4998967;28;20182;-84
2022/10/01 05:37:05;;;;;;;1.53;1.20;;;14.40;99.90;;;;;;5035649;28;20175;-83
2022/10/01 05:39:32;;;;;;;2.10;1.40;;;14.40;99.90;;;;;;5023793;28;20228;-86
2022/10/01 05:41:58;;;;;;;4.37;1.63;;;14.50;99.90;;;;;;4997538;28;20212;-85
2022/10/01 05:44:24;;;;;;;1.67;1.20;;;14.60;99.90;;;;;;5015281;28;20186;-85
2022/10/01 05:46:52;;;;;;;2.17;1.30;;;14.60;99.90;;;;;;5014431;28;20185;-85
2022/10/01 05:49:23;;;;;;;2.00;1.30;;;14.60;99.90;;;;;;5017419;28;20731;-85
2022/10/01 05:51:49;;;;;;;2.37;1.70;;;14.50;99.90;;;;;;5014361;28;20289;-84
2022/10/01 05:54:18;;;;;;;7.10;1.97;;;14.50;99.90;;;;;;5017273;28;20648;-84
2022/10/01 05:56:44;;;;;;;2.53;1.47;;;14.50;99.90;;;;;;4999464;28;20635;-84
2022/10/01 05:59:15;;;;;;;3.17;1.60;;;14.50;99.90;;;;;;5023381;28;20178;-85
2022/10/01 06:01:41;;;;;;;2.93;1.53;;;14.50;99.90;;;;;;5016866;28;20184;-86
2022/10/01 06:04:09;;;;;;;4.10;1.80;;;14.50;99.90;;;;;;5015521;28;20174;-84
2022/10/01 06:06:38;;;;;;;3.13;1.80;;;14.60;99.90;;;;;;5014203;28;20176;-85
2022/10/01 06:09:04;;;;;;;3.83;1.87;;;14.60;99.90;;;;;;5014473;28;20186;-84
2022/10/01 06:11:29;;;;;;;4.00;1.60;;;14.50;99.90;;;;;;5013692;28;20210;-85
2022/10/01 06:13:55;;;;;;;2.97;1.77;;;14.60;99.90;;;;;;5014368;28;20654;-84
2022/10/01 06:16:21;;;;;;;4.70;1.87;;;14.50;99.90;;;;;;5014536;28;20665;-84
2022/10/01 06:18:48;;;;;;;4.87;2.40;;;14.70;99.90;;;;;;5013834;28;20181;-85
2022/10/01 06:21:14;;;;;;;8.57;2.33;;;14.70;99.90;;;;;;5018718;28;20178;-84
2022/10/01 06:23:43;;;;;;;4.97;2.13;;;14.70;99.90;;;;;;5015608;28;20205;-85
2022/10/01 06:26:09;;;;;;;6.03;2.17;;;14.80;99.90;;;;;;5019822;28;20198;-85
2022/10/01 06:28:34;;;;;;;4.43;2.07;;;14.80;99.90;;;;;;5038454;28;20158;-85
2022/10/01 06:31:01;;;;;;;4.20;2.00;;;14.80;99.90;;;;;;5036081;28;20182;-84
2022/10/01 06:33:27;;;;;;;5.83;2.03;;;14.70;99.90;;;;;;5021693;28;20186;-85
2022/10/01 06:35:55;;;;;;;4.03;2.23;;;14.90;99.90;;;;;;5019668;28;20179;-85
2022/10/01 06:38:22;;;;;;;4.83;2.73;;;14.90;99.90;;;;;;5021302;28;20197;-85
2022/10/01 06:40:53;;;;;;;5.07;3.23;;;14.90;99.90;;;;;;5017212;28;20196;-84
2022/10/01 06:43:19;;;;;;;7.13;3.60;;;15.00;99.90;;;;;;5016633;28;20170;-86
2022/10/01 06:45:45;;;;;;;5.17;3.67;;;14.90;99.90;;;;;;5016105;28;20267;-87
2022/10/01 06:48:15;;;;;;;4.97;3.17;;;15.10;99.90;;;;;;5016011;28;20210;-84
2022/10/01 06:50:43;;;;;;;5.73;3.30;;;14.80;99.90;;;;;;5020343;28;20185;-86
2022/10/01 06:53:09;;;;;;;7.23;3.87;;;15.10;99.90;;;;;;5015994;28;20303;-84
2022/10/01 06:55:36;;;;;;;5.53;3.50;;;15.10;99.90;;;;;;5015702;28;20173;-85
2022/10/01 06:58:08;;;;;;;9.03;3.73;;;15.10;99.90;;;;;;5016548;28;20220;-86
2022/10/01 07:00:35;;;;;;;5.90;3.60;;;15.10;99.90;;;;;;5016886;28;20166;-85
2022/10/01 07:03:03;;;;;;;6.93;3.83;;;15.20;99.90;;;;;;5016093;28;20253;-86
2022/10/01 07:05:29;;;;;;;9.40;3.80;;;15.10;99.90;;;;;;5019535;28;20200;-84
2022/10/01 07:07:55;;;;;;;6.43;3.70;;;15.10;99.90;;;;;;5015996;28;20166;-85
2022/10/01 07:10:22;;;;;;;8.33;3.97;;;15.10;99.90;;;;;;5015610;28;20282;-84
2022/10/01 07:12:48;;;;;;;7.97;4.40;;;15.10;99.90;;;;;;5015043;28;20241;-84
2022/10/01 07:15:19;;;;;;;6.47;4.47;;;15.20;99.90;;;;;;5015335;28;20185;-85
2022/10/01 07:17:50;;;;;;;8.03;3.90;;;15.20;99.90;;;;;;5015028;28;20544;-85
2022/10/01 07:20:18;;;;;;;8.53;4.57;;;15.40;99.90;;;;;;5015626;28;20174;-87
2022/10/01 07:22:43;;;;;;;9.80;4.40;;;15.40;99.90;;;;;;5014602;28;20193;-85
2022/10/01 07:25:09;;;;;;;9.67;4.57;;;15.50;99.90;;;;;;5012404;28;20638;-84
2022/10/01 07:27:36;;;;;;;9.73;4.20;;;15.50;99.90;;;;;;4996582;28;20257;-86
2022/10/01 07:30:02;;;;;;;8.50;4.13;;;15.50;99.90;;;;;;4996267;28;20171;-86
2022/10/01 07:32:30;;;;;;;8.83;4.33;;;15.50;99.90;;;;;;4994446;28;20285;-86
2022/10/01 07:34:56;;;;;;;8.33;3.80;;;15.70;99.90;;;;;;5011233;28;20179;-86
2022/10/01 07:37:23;;;;;;;13.47;4.67;;;15.60;99.90;;;;;;4994696;28;20179;-84
2022/10/01 07:39:48;;;;;;;10.53;4.00;;;15.70;99.90;;;;;;4996724;28;20226;-84
2022/10/01 07:42:14;;;;;;;11.40;4.17;;;15.70;99.90;;;;;;4994471;28;20183;-85
2022/10/01 07:44:40;;;;;;;8.63;4.10;;;15.70;99.90;;;;;;4995199;28;20262;-85
2022/10/01 07:47:06;;;;;;;9.10;3.97;;;15.70;99.90;;;;;;4994830;28;20217;-85
2022/10/01 07:49:32;;;;;;;12.60;4.07;;;15.80;99.90;;;;;;4996269;28;20191;-85
2022/10/01 07:51:58;;;;;;;14.40;4.70;;;15.80;99.90;;;;;;4999642;28;20221;-86
2022/10/01 07:54:24;;;;;;;10.83;4.03;;;15.80;99.90;;;;;;5000746;28;20237;-85
2022/10/01 07:56:54;;;;;;;15.40;4.60;;;15.90;99.90;;;;;;5004356;28;20195;-84
2022/10/01 07:59:21;;;;;;;14.83;4.10;;;15.90;99.90;;;;;;5000779;28;20183;-85
2022/10/01 08:01:50;;;;;;;9.10;3.50;;;16.00;99.90;;;;;;5013663;28;20223;-87
2022/10/01 08:07:00;;;;;;;11.13;3.87;;;16.10;99.90;;;;;;5014133;28;20178;-87
2022/10/01 08:09:26;;;;;;;11.03;4.13;;;16.20;99.90;;;;;;5013550;28;20171;-87
2022/10/01 08:11:53;;;;;;;12.60;3.87;;;16.30;99.90;;;;;;5009012;28;20267;-86
2022/10/01 08:14:19;;;;;;;12.33;3.67;;;16.30;99.90;;;;;;4999553;28;20631;-87
2022/10/01 08:16:46;;;;;;;15.00;3.90;;;16.40;99.90;;;;;;4995943;28;20179;-85
2022/10/01 08:19:12;;;;;;;14.93;4.37;;;16.40;99.90;;;;;;4997346;28;20263;-86
2022/10/01 08:21:39;;;;;;;12.53;3.90;;;16.40;99.90;;;;;;5002876;28;20233;-86
2022/10/01 08:24:05;;;;;;;14.40;4.90;;;16.40;99.90;;;;;;5003933;28;20209;-85
2022/10/01 08:26:31;;;;;;;13.47;4.10;;;16.50;99.90;;;;;;4995981;28;20194;-88
2022/10/01 08:28:57;;;;;;;12.23;4.00;;;16.40;99.90;;;;;;4999195;28;20186;-87
2022/10/01 08:31:23;;;;;;;12.83;4.37;;;16.50;99.90;;;;;;4993167;28;20269;-86
2022/10/01 08:33:51;;;;;;;18.53;4.30;;;16.40;99.90;;;;;;4997385;28;20191;-87
2022/10/01 08:36:18;;;;;;;14.67;4.07;;;16.50;99.90;;;;;;4997623;28;20242;-88
2022/10/01 08:38:45;;;;;;;9.80;3.80;;;16.60;99.90;;;;;;4994185;28;20205;-87
2022/10/01 08:41:49;;;;;;;14.03;4.63;;;16.60;99.90;;;;;;4995706;28;20620;-87
2022/10/01 08:44:22;;;;;;;13.07;3.93;;;16.50;99.90;;;;;;5010162;28;20170;-84
2022/10/01 08:46:50;;;;;;;13.90;4.27;;;16.50;99.90;;;;;;5016703;28;20173;-85
2022/10/01 08:49:22;;;;;;;14.93;4.67;;;16.50;99.90;;;;;;5016627;28;20250;-86
2022/10/01 08:51:53;;;;;;;14.77;4.80;;;16.50;99.90;;;;;;5017822;28;20286;-86
2022/10/01 08:54:48;;;;;;;14.67;4.27;;;16.50;99.90;;;;;;5018188;28;20179;-85
2022/10/01 08:57:23;;;;;;;14.77;4.47;;;16.50;99.90;;;;;;5017351;28;20175;-86
2022/10/01 09:00:06;;;;;;;18.70;4.50;;;16.50;99.90;;;;;;5009372;28;20174;-87
2022/10/01 09:02:50;;;;;;;16.10;4.93;;;16.70;99.90;;;;;;5016396;28;20178;-87
2022/10/01 09:05:34;;;;;;;16.47;4.63;;;16.90;99.20;;;;;;5010998;28;20194;-86
2022/10/01 09:08:21;;;;;;;17.43;5.23;;;17.00;98.40;;;;;;5012418;28;20190;-88
2022/10/01 09:11:00;;;;;;;10.70;4.27;;;17.10;96.30;;;;;;4992562;28;20175;-88
2022/10/01 09:17:03;;;;;;;17.40;4.90;;;17.10;94.90;;;;;;4997193;28;20241;-87
2022/10/01 09:20:07;;;;;;;10.43;5.10;;;17.00;93.20;;;;;;4994254;28;20182;-85
2022/10/01 09:23:25;;;;;;;15.43;5.33;;;16.90;91.10;;;;;;4994382;28;20202;-87
2022/10/01 09:26:27;;;;;;;16.57;5.40;;;16.80;92.50;;;;;;4993478;28;20222;-87
2022/10/01 09:29:34;;;;;;;15.67;5.77;;;16.80;91.90;;;;;;4993716;28;20182;-87
2022/10/01 09:32:05;;;;;;;11.93;4.80;;;17.00;91.00;;;;;;4995243;28;20679;-85
2022/10/01 09:34:40;;;;;;;14.13;5.20;;;17.20;90.80;;;;;;5001183;28;20258;-88
2022/10/01 09:37:31;;;;;;;14.17;5.07;;;17.40;81.20;;;;;;5002200;28;20178;-87
2022/10/01 09:40:09;;;;;;;15.77;4.17;;;17.30;81.70;;;;;;5000732;28;20178;-88
2022/10/01 09:42:35;;;;;;;12.30;4.80;;;17.30;81.40;;;;;;5001276;28;20178;-85
2022/10/01 09:45:00;;;;;;;12.93;4.13;;;17.40;81.80;;;;;;4996731;28;20236;-86
2022/10/01 09:47:26;;;;;;;11.33;4.53;;;17.60;76.20;;;;;;4996245;28;20206;-88
2022/10/01 09:49:54;;;;;;;11.17;4.53;;;17.40;72.90;;;;;;4994179;28;20217;-85
2022/10/01 09:52:32;;;;;;;10.23;3.90;;;17.40;70.00;;;;;;4996055;28;20206;-85
2022/10/01 09:55:06;;;;;;;11.13;4.27;;;17.30;66.90;;;;;;4995712;28;20247;-86
2022/10/01 09:57:42;;;;;;;13.60;4.87;;;17.40;70.00;;;;;;4999367;28;20179;-86
2022/10/01 10:00:19;;;;;;;11.07;4.77;;;17.60;64.80;;;;;;4997540;28;20174;-86
2022/10/01 10:02:46;;;;;;;12.60;5.00;;;17.40;60.50;;;;;;4997727;28;20187;-88
2022/10/01 10:05:22;;;;;;;13.63;4.73;;;17.30;65.80;;;;;;4997778;28;20204;-87
2022/10/01 10:07:56;;;;;;;15.87;4.63;;;17.30;66.10;;;;;;4997188;28;20183;-86
2022/10/01 10:10:26;;;;;;;9.63;4.10;;;17.50;62.10;;;;;;4998219;28;20202;-85
2022/10/01 10:13:30;;;;;;;13.67;4.40;;;17.40;59.40;;;;;;4998645;28;20265;-87
2022/10/01 10:15:57;;;;;;;12.50;4.67;;;17.40;58.60;;;;;;4996453;28;20187;-87
2022/10/01 10:18:37;;;;;;;15.20;4.07;;;17.60;60.30;;;;;;4998185;28;20584;-87
2022/10/01 10:21:10;;;;;;;9.20;4.00;;;17.80;54.50;;;;;;4997220;28;20622;-85
2022/10/01 10:24:00;;;;;;;9.53;4.80;;;17.90;52.00;;;;;;4997426;28;20621;-86
2022/10/01 10:26:32;;;;;;;10.07;4.40;;;17.90;47.40;;;;;;4999285;28;20718;-87
2022/10/01 10:29:01;;;;;;;11.43;5.33;;;17.90;39.90;;;;;;4997484;28;20267;-86
2022/10/01 10:31:43;;;;;;;10.60;4.93;;;17.70;41.20;;;;;;4996812;28;20179;-87
2022/10/01 10:34:37;;;;;;;11.53;4.90;;;17.70;45.50;;;;;;4999776;28;20248;-86
2022/10/01 10:37:12;;;;;;;12.23;4.50;;;17.80;40.20;;;;;;5011638;28;20240;-87
2022/10/01 10:39:43;;;;;;;11.73;5.10;;;17.80;39.50;;;;;;5007342;28;20182;-86
2022/10/01 10:42:14;;;;;;;11.60;4.83;;;17.90;37.10;;;;;;5001920;28;20341;-87
2022/10/01 10:44:42;;;;;;;11.07;4.53;;;17.80;36.50;;;;;;4997569;28;20310;-87
2022/10/01 10:47:57;;;;;;;11.10;4.13;;;17.90;36.50;;;;;;4999587;28;20175;-88
2022/10/01 10:50:44;;;;;;;;;;;;;;;;;;;;;
2022/10/01 10:53:34;;;;;;;11.03;4.10;;;18.40;27.70;;;;;;5002229;28;20282;-86
2022/10/01 10:56:05;;;;;;;13.97;4.30;;;18.50;24.20;;;;;;4999420;28;20246;-85
2022/10/01 10:58:33;;;;;;;9.93;3.83;;;18.50;16.90;;;;;;4997662;28;20176;-84
2022/10/01 11:01:15;;;;;;;11.13;3.70;;;18.70;17.80;;;;;;4994944;28;20611;-85
2022/10/01 11:03:48;;;;;;;9.37;2.87;;;18.70;7.70;;;;;;4995288;28;20296;-84
2022/10/01 11:06:17;;;;;;;10.50;3.00;;;18.50;4.80;;;;;;4993684;28;20183;-86
2022/10/01 11:08:55;;;;;;;9.30;3.13;;;18.70;9.60;;;;;;4994965;28;20171;-85
2022/10/01 11:11:52;;;;;;;9.70;2.90;;;18.90;2.50;;;;;;4996842;28;20187;-85
2022/10/01 11:14:31;;;;;;;10.00;3.17;;;19.00;1.00;;;;;;5001368;28;20175;-84
2022/10/01 11:17:13;;;;;;;12.77;3.00;;;19.00;1.00;;;;;;4999952;28;20167;-84
2022/10/01 11:20:02;;;;;;;9.50;2.40;;;18.90;1.00;;;;;;5006313;28;20653;-87
2022/10/01 11:22:52;;;;;;;11.73;3.00;;;18.80;1.00;;;;;;5002326;28;20231;-87
2022/10/01 11:25:33;;;;;;;10.27;2.90;;;19.10;1.00;;;;;;5001316;28;20195;-88
2022/10/01 11:28:02;;;;;;;11.93;3.17;;;19.20;1.00;;;;;;5000019;28;20187;-86
2022/10/01 11:31:26;;;;;;;10.40;2.70;;;18.90;1.00;;;;;;5006719;28;20481;-87
2022/10/01 11:33:56;;;;;;;16.63;3.70;;;18.80;1.00;;;;;;4999178;28;20245;-87
2022/10/01 11:36:43;;;;;;;7.80;2.47;;;18.70;1.00;;;;;;4996728;28;20188;-88
2022/10/01 11:39:16;;;;;;;11.53;2.77;;;18.60;1.00;;;;;;4999454;28;20171;-87
2022/10/01 11:41:43;;;;;;;12.07;3.20;;;18.50;2.70;;;;;;5000720;28;20183;-87
2022/10/01 11:44:23;;;;;;;10.97;3.03;;;18.50;1.60;;;;;;5000555;28;20542;-88
2022/10/01 11:46:57;;;;;;;11.53;2.90;;;18.50;1.00;;;;;;5002978;28;20187;-89
2022/10/01 11:49:45;;;;;;;9.77;2.67;;;18.50;2.20;;;;;;5015646;28;20189;-87
2022/10/01 11:52:22;;;;;;;10.13;2.73;;;18.60;3.00;;;;;;5017231;28;20263;-89
2022/10/01 11:58:49;;;;;;;8.83;2.80;;;18.80;1.00;;;;;;5018645;28;20159;-84
2022/10/01 12:00:49;;;;;;;9.50;2.40;;;18.90;1.00;;;;;;5004935;28;20181;-88
2022/10/01 12:03:20;;;;;;;11.10;2.53;;;19.10;1.00;;;;;;4986310;28;20190;-89
2022/10/01 12:05:56;;;;;;;9.23;3.27;;;19.20;1.00;;;;;;5001771;28;20167;-90
2022/10/01 12:08:31;;;;;;;10.03;2.83;;;19.10;1.00;;;;;;5001366;28;20180;-90
2022/10/01 12:11:16;;;;;;;7.43;2.20;;;19.10;1.00;;;;;;5003400;28;20169;-89
2022/10/01 12:13:53;;;;;;;9.37;2.50;;;19.30;1.00;;;;;;4999587;28;20182;-90
2022/10/01 12:16:19;;;;;;;12.57;3.40;;;19.30;1.00;;;;;;5001196;28;20632;-89
2022/10/01 12:19:04;;;;;;;7.87;2.30;;;19.30;1.00;;;;;;5011129;28;20184;-86
2022/10/01 12:21:48;;;;;;;11.17;2.50;;;19.20;1.00;;;;;;5014074;28;20180;-91
2022/10/01 12:24:27;;;;;;;13.03;2.83;;;19.20;1.00;;;;;;5010987;28;20232;-94
2022/10/01 12:27:19;;;;;;;8.00;2.27;;;19.30;1.00;;;;;;5007541;28;20206;-91
2022/10/01 12:30:00;;;;;;;9.20;2.50;;;19.40;1.00;;;;;;5004793;28;20175;-92
2022/10/01 12:32:54;;;;;;;9.97;2.73;;;19.40;1.00;;;;;;5007746;28;20207;-91
2022/10/01 12:35:40;;;;;;;12.50;2.60;;;19.40;1.00;;;;;;5008765;28;20174;-91
2022/10/01 12:38:50;;;;;;;7.83;2.80;;;19.60;1.00;;;;;;5012838;28;20180;-93
2022/10/01 12:41:38;;;;;;;10.77;2.97;;;19.60;1.00;;;;;;5007531;28;20192;-88
2022/10/01 12:44:43;;;;;;;9.60;3.60;;;19.50;1.00;;;;;;5008662;28;20198;-88
2022/10/01 12:47:47;;;;;;;8.77;2.63;;;19.40;1.00;;;;;;5007224;28;20225;-93
2022/10/01 12:50:21;;;;;;;13.60;3.83;;;19.40;1.00;;;;;;5008591;28;20224;-90
2022/10/01 12:52:53;;;;;;;10.20;2.90;;;19.20;1.00;;;;;;5000494;28;20275;-93
2022/10/01 12:55:53;;;;;;;12.80;3.97;;;19.30;1.00;;;;;;5004038;28;20218;-89
2022/10/01 12:58:24;;;;;;;14.20;3.40;;;19.30;1.00;;;;;;5003941;28;20187;-87
2022/10/01 13:01:23;;;;;;;10.90;3.20;;;19.40;1.00;;;;;;5004782;28;20276;-89
2022/10/01 13:04:16;;;;;;;11.20;3.43;;;19.30;1.00;;;;;;5012349;28;20176;-95
2022/10/01 13:09:56;;;;;;;11.90;3.53;;;19.40;1.00;;;;;;5588274;23;20242;-94
2022/10/01 13:12:55;;;;;;;10.33;3.13;;;19.40;1.00;;;;;;5013271;28;20294;-93
2022/10/01 13:15:39;;;;;;;8.87;2.60;;;19.30;1.00;;;;;;5014214;28;20202;-92
2022/10/01 13:18:45;;;;;;;10.23;2.90;;;19.00;1.00;;;;;;5012033;28;20198;-93
2022/10/01 13:22:07;;;;;;;9.73;2.83;;;19.10;1.00;;;;;;5253674;23;21346;-92
2022/10/01 13:25:11;;;;;;;8.53;2.73;;;19.00;1.00;;;;;;4968577;28;20207;-94
2022/10/01 13:28:06;;;;;;;11.97;4.40;;;19.00;1.00;;;;;;4966980;28;20193;-94